createdAt,value
2018-05-16T00:00:43.576Z,7.00
2018-05-16T00:03:10.962Z,8.10
2018-05-16T00:05:38.377Z,6.50
2018-05-16T00:08:05.773Z,7.77
2018-05-16T00:10:33.157Z,6.60
2018-05-16T00:13:00.548Z,6.30
2018-05-16T00:15:27.952Z,7.23
2018-05-16T00:17:55.340Z,7.70
2018-05-16T00:20:22.734Z,7.50
2018-05-16T00:22:50.143Z,6.33
2018-05-16T00:25:17.532Z,7.30
2018-05-16T00:27:44.928Z,5.80
2018-05-16T00:30:12.335Z,5.60
2018-05-16T00:32:39.743Z,5.70
2018-05-16T00:35:07.136Z,7.53
2018-05-16T00:37:34.522Z,8.60
2018-05-16T00:40:01.916Z,5.63
2018-05-16T00:42:29.295Z,6.53
2018-05-16T00:44:56.687Z,7.43
2018-05-16T00:47:24.148Z,7.33
2018-05-16T00:49:51.587Z,7.13
2018-05-16T00:52:18.971Z,8.80
2018-05-16T00:54:46.378Z,7.80
2018-05-16T00:57:13.783Z,5.53
2018-05-16T00:59:41.159Z,4.97
2018-05-16T01:02:08.549Z,6.10
2018-05-16T01:04:35.944Z,10.80
2018-05-16T01:07:03.332Z,13.97
2018-05-16T01:09:30.733Z,13.73
2018-05-16T01:11:58.348Z,14.40
2018-05-16T01:14:25.752Z,14.20
2018-05-16T01:16:53.156Z,15.07
2018-05-16T01:19:20.532Z,9.03
2018-05-16T01:21:47.921Z,6.90
2018-05-16T01:24:15.305Z,7.37
2018-05-16T01:26:42.695Z,5.40
2018-05-16T01:29:10.095Z,5.70
2018-05-16T01:31:37.480Z,5.17
2018-05-16T01:34:04.864Z,5.93
2018-05-16T01:36:32.253Z,4.40
2018-05-16T01:38:59.641Z,5.23
2018-05-16T01:41:27.029Z,4.73
2018-05-16T01:43:54.426Z,6.00
2018-05-16T01:46:21.828Z,6.73
2018-05-16T01:49:00.911Z,6.50
2018-05-16T01:51:28.306Z,8.10
2018-05-16T01:53:55.693Z,8.57
2018-05-16T01:56:23.084Z,8.63
2018-05-16T01:58:50.479Z,10.13
2018-05-16T02:01:17.877Z,8.27
2018-05-16T02:03:45.261Z,9.50
2018-05-16T02:06:12.675Z,8.17
2018-05-16T02:08:40.073Z,11.13
2018-05-16T02:11:07.470Z,11.00
2018-05-16T02:13:34.877Z,9.27
2018-05-16T02:16:02.290Z,8.30
2018-05-16T02:18:29.668Z,8.00
2018-05-16T02:20:57.096Z,7.43
2018-05-16T02:23:24.497Z,6.30
2018-05-16T02:25:51.891Z,6.77
2018-05-16T02:28:19.301Z,6.20
2018-05-16T02:30:46.830Z,6.10
2018-05-16T02:33:14.232Z,7.50
2018-05-16T02:35:41.624Z,5.63
2018-05-16T02:38:09.015Z,5.20
2018-05-16T02:40:36.410Z,6.37
2018-05-16T02:43:03.815Z,5.40
2018-05-16T02:45:31.209Z,5.50
2018-05-16T02:47:58.609Z,5.37
2018-05-16T02:50:26.007Z,4.80
2018-05-16T02:52:53.420Z,5.10
2018-05-16T02:55:20.830Z,5.50
2018-05-16T02:57:48.203Z,6.30
2018-05-16T03:00:15.592Z,4.93
2018-05-16T03:02:42.989Z,5.33
2018-05-16T03:05:10.384Z,5.67
2018-05-16T03:07:37.768Z,6.63
2018-05-16T03:10:05.166Z,5.47
2018-05-16T03:12:32.544Z,6.40
2018-05-16T03:14:59.932Z,8.10
2018-05-16T03:17:27.316Z,6.90
2018-05-16T03:19:54.699Z,7.17
2018-05-16T03:22:22.088Z,7.70
2018-05-16T03:24:49.473Z,7.93
2018-05-16T03:27:16.865Z,8.50
2018-05-16T03:29:44.243Z,6.50
2018-05-16T03:32:11.672Z,10.00
2018-05-16T03:34:39.075Z,9.40
2018-05-16T03:37:06.480Z,6.20
2018-05-16T03:39:33.868Z,7.20
2018-05-16T03:42:01.281Z,6.30
2018-05-16T03:44:28.690Z,5.13
2018-05-16T03:46:56.073Z,5.60
2018-05-16T03:49:23.460Z,5.60
2018-05-16T03:51:50.860Z,7.07
2018-05-16T03:54:18.225Z,6.00
2018-05-16T03:56:45.623Z,6.57
2018-05-16T03:59:24.715Z,6.83
2018-05-16T04:02:03.820Z,6.00
2018-05-16T04:04:31.199Z,5.93
2018-05-16T04:06:58.592Z,7.10
2018-05-16T04:09:25.972Z,5.20
2018-05-16T04:11:53.364Z,5.70
2018-05-16T04:14:20.771Z,5.80
2018-05-16T04:16:48.156Z,4.87
2018-05-16T04:19:15.548Z,5.37
2018-05-16T04:21:42.976Z,5.83
2018-05-16T04:24:10.383Z,6.43
2018-05-16T04:26:37.767Z,5.60
2018-05-16T04:29:05.187Z,5.03
2018-05-16T04:31:32.556Z,4.83
2018-05-16T04:33:59.935Z,4.63
2018-05-16T04:36:27.329Z,4.30
2018-05-16T04:38:54.764Z,4.70
2018-05-16T04:41:22.132Z,4.50
2018-05-16T04:43:49.516Z,4.57
2018-05-16T04:46:16.904Z,4.57
2018-05-16T04:48:44.279Z,5.33
2018-05-16T04:51:11.679Z,5.67
2018-05-16T04:53:39.055Z,4.50
2018-05-16T04:56:06.448Z,4.70
2018-05-16T04:58:33.953Z,7.47
2018-05-16T05:01:01.375Z,6.10
2018-05-16T05:03:28.722Z,8.53
2018-05-16T05:05:56.107Z,5.20
2018-05-16T05:08:23.573Z,4.90
2018-05-16T05:10:50.951Z,6.20
2018-05-16T05:13:18.423Z,6.63
2018-05-16T05:15:45.824Z,4.93
2018-05-16T05:18:13.271Z,6.57
2018-05-16T05:20:40.576Z,8.20
2018-05-16T05:23:07.959Z,6.83
2018-05-16T05:25:35.336Z,4.70
2018-05-16T05:28:02.726Z,4.90
2018-05-16T05:30:30.109Z,5.37
2018-05-16T05:32:57.495Z,4.93
2018-05-16T05:35:24.871Z,4.33
2018-05-16T05:37:52.296Z,4.37
2018-05-16T05:40:19.721Z,5.47
2018-05-16T05:42:47.110Z,4.00
2018-05-16T05:45:14.488Z,7.13
2018-05-16T05:47:41.880Z,3.90
2018-05-16T05:50:09.255Z,4.80
2018-05-16T05:52:36.640Z,5.40
2018-05-16T05:55:04.107Z,5.67
2018-05-16T05:57:31.519Z,5.50
2018-05-16T05:59:59.152Z,4.87
2018-05-16T06:02:26.570Z,4.40
2018-05-16T06:04:53.962Z,4.57
2018-05-16T06:07:21.344Z,4.23
2018-05-16T06:09:48.745Z,6.17
2018-05-16T06:12:16.118Z,4.43
2018-05-16T06:14:43.530Z,5.33
2018-05-16T06:17:10.895Z,5.40
2018-05-16T06:19:38.330Z,4.70
2018-05-16T06:22:05.721Z,4.70
2018-05-16T06:24:33.120Z,4.90
2018-05-16T06:27:00.603Z,6.13
2018-05-16T06:29:27.893Z,4.40
2018-05-16T06:31:55.279Z,4.40
2018-05-16T06:34:22.671Z,4.77
2018-05-16T06:36:50.044Z,4.80
2018-05-16T06:39:17.512Z,4.47
2018-05-16T06:41:44.816Z,5.03
2018-05-16T06:44:12.200Z,4.77
2018-05-16T06:46:39.580Z,5.60
2018-05-16T06:49:06.974Z,4.00
2018-05-16T06:51:34.353Z,4.50
2018-05-16T06:54:01.740Z,4.43
2018-05-16T06:56:29.129Z,3.97
2018-05-16T06:58:56.513Z,6.73
2018-05-16T07:01:23.893Z,4.73
2018-05-16T07:03:51.324Z,4.70
2018-05-16T07:06:18.695Z,4.83
2018-05-16T07:08:46.088Z,4.87
2018-05-16T07:11:13.463Z,4.30
2018-05-16T07:13:40.839Z,4.10
2018-05-16T07:16:08.228Z,3.67
2018-05-16T07:18:35.606Z,4.57
2018-05-16T07:21:03.005Z,4.40
2018-05-16T07:23:30.399Z,3.80
2018-05-16T07:25:57.919Z,8.17
2018-05-16T07:28:25.304Z,3.93
2018-05-16T07:30:52.705Z,4.53
2018-05-16T07:33:20.098Z,3.50
2018-05-16T07:35:47.484Z,4.13
2018-05-16T07:38:14.863Z,5.13
2018-05-16T07:40:42.255Z,9.50
2018-05-16T07:43:09.636Z,3.83
2018-05-16T07:45:37.025Z,4.60
2018-05-16T07:48:04.405Z,4.77
2018-05-16T07:50:31.796Z,4.47
2018-05-16T07:52:59.176Z,5.33
2018-05-16T07:55:26.568Z,4.50
2018-05-16T07:57:53.951Z,4.30
2018-05-16T08:00:21.348Z,4.77
2018-05-16T08:02:49.361Z,4.83
2018-05-16T08:05:16.737Z,5.03
2018-05-16T08:07:44.120Z,4.03
2018-05-16T08:10:11.503Z,5.17
2018-05-16T08:12:38.901Z,4.77
2018-05-16T08:15:06.318Z,4.77
2018-05-16T08:17:33.756Z,4.30
2018-05-16T08:20:01.139Z,4.67
2018-05-16T08:22:28.536Z,4.37
2018-05-16T08:24:55.917Z,4.60
2018-05-16T08:27:23.312Z,4.57
2018-05-16T08:29:50.685Z,4.63
2018-05-16T08:32:18.088Z,4.37
2018-05-16T08:34:45.472Z,4.30
2018-05-16T08:37:12.992Z,4.63
2018-05-16T08:39:40.396Z,4.77
2018-05-16T08:42:07.803Z,6.57
2018-05-16T08:44:35.176Z,4.77
2018-05-16T08:47:02.605Z,4.57
2018-05-16T08:49:30.022Z,4.40
2018-05-16T08:51:57.451Z,5.00
2018-05-16T08:54:24.854Z,4.73
2018-05-16T08:56:52.276Z,4.63
2018-05-16T08:59:19.864Z,4.50
2018-05-16T09:01:47.358Z,9.20
2018-05-16T09:04:14.721Z,6.80
2018-05-16T09:06:42.142Z,4.57
2018-05-16T09:09:09.556Z,4.70
2018-05-16T09:11:36.976Z,4.47
2018-05-16T09:14:04.399Z,3.63
2018-05-16T09:16:31.813Z,4.83
2018-05-16T09:18:59.233Z,3.50
2018-05-16T09:21:26.652Z,3.83
2018-05-16T09:23:54.073Z,3.80
2018-05-16T09:26:21.488Z,5.07
2018-05-16T09:28:48.915Z,3.00
2018-05-16T09:31:16.333Z,4.30
2018-05-16T09:33:43.753Z,3.17
2018-05-16T09:36:11.174Z,3.57
2018-05-16T09:38:38.594Z,5.73
2018-05-16T09:41:06.019Z,3.70
2018-05-16T09:43:33.441Z,4.10
2018-05-16T09:46:00.875Z,4.40
2018-05-16T09:48:28.284Z,3.90
2018-05-16T09:50:55.707Z,3.87
2018-05-16T09:53:23.128Z,5.27
2018-05-16T09:55:50.541Z,4.13
2018-05-16T09:58:17.956Z,3.93
2018-05-16T10:00:45.376Z,4.30
2018-05-16T10:03:12.796Z,4.80
2018-05-16T10:05:40.204Z,4.70
2018-05-16T10:08:07.631Z,3.87
2018-05-16T10:10:35.038Z,3.73
2018-05-16T10:13:02.451Z,4.20
2018-05-16T10:15:29.877Z,4.00
2018-05-16T10:17:57.289Z,4.60
2018-05-16T10:20:25.061Z,5.77
2018-05-16T10:22:52.492Z,4.97
2018-05-16T10:25:19.913Z,4.40
2018-05-16T10:27:47.320Z,4.23
2018-05-16T10:30:14.724Z,4.47
2018-05-16T10:32:42.141Z,4.57
2018-05-16T10:35:10.176Z,4.00
2018-05-16T10:37:38.139Z,3.57
2018-05-16T10:40:05.572Z,4.33
2018-05-16T10:42:33.581Z,4.30
2018-05-16T10:45:01.637Z,5.10
2018-05-16T10:47:30.530Z,3.53
2018-05-16T10:49:57.958Z,4.00
2018-05-16T10:52:25.370Z,4.03
2018-05-16T10:54:52.762Z,6.27
2018-05-16T10:57:20.219Z,3.60
2018-05-16T10:59:47.520Z,4.33
2018-05-16T11:02:14.903Z,3.67
2018-05-16T11:04:42.353Z,7.00
2018-05-16T11:07:09.681Z,4.30
2018-05-16T11:09:37.109Z,4.40
2018-05-16T11:12:04.511Z,4.23
2018-05-16T11:14:31.913Z,4.50
2018-05-16T11:16:59.336Z,3.90
2018-05-16T11:19:26.735Z,4.03
2018-05-16T11:21:55.051Z,4.07
2018-05-16T11:24:23.122Z,4.23
2018-05-16T11:26:50.516Z,4.23
2018-05-16T11:29:18.399Z,4.90
2018-05-16T11:31:46.830Z,6.67
2018-05-16T11:34:14.284Z,4.40
2018-05-16T11:36:41.693Z,4.40
2018-05-16T11:39:09.131Z,3.97
2018-05-16T11:41:36.604Z,5.37
2018-05-16T11:44:04.006Z,4.53
2018-05-16T11:46:31.421Z,4.87
2018-05-16T11:48:58.809Z,3.50
2018-05-16T11:51:26.212Z,4.57
2018-05-16T11:53:53.639Z,3.20
2018-05-16T11:56:21.062Z,3.67
2018-05-16T11:58:48.473Z,3.33
2018-05-16T12:01:16.796Z,4.27
2018-05-16T12:03:44.370Z,5.00
2018-05-16T12:06:13.421Z,4.20
2018-05-16T12:08:40.889Z,4.60
2018-05-16T12:11:08.317Z,4.90
2018-05-16T12:13:35.708Z,3.90
2018-05-16T12:16:03.295Z,3.53
2018-05-16T12:18:30.731Z,4.80
2018-05-16T12:20:58.118Z,3.03
2018-05-16T12:23:25.533Z,3.73
2018-05-16T12:25:52.907Z,4.03
2018-05-16T12:28:20.717Z,3.13
2018-05-16T12:30:48.110Z,3.17
2018-05-16T12:33:15.541Z,4.10
2018-05-16T12:35:42.931Z,3.80
2018-05-16T12:38:10.339Z,3.17
2018-05-16T12:40:37.709Z,3.10
2018-05-16T12:43:17.604Z,2.60
2018-05-16T12:45:49.102Z,2.50
2018-05-16T12:48:17.355Z,2.70
2018-05-16T12:50:45.017Z,2.93
2018-05-16T12:53:13.880Z,2.57
2018-05-16T12:55:44.637Z,2.40
2018-05-16T12:58:14.501Z,2.33
2018-05-16T13:00:42.052Z,3.47
2018-05-16T13:03:09.425Z,2.50
2018-05-16T13:05:36.822Z,2.67
2018-05-16T13:08:05.058Z,3.07
2018-05-16T13:10:32.417Z,3.07
2018-05-16T13:12:59.852Z,2.90
2018-05-16T13:15:27.194Z,3.23
2018-05-16T13:17:54.703Z,3.70
2018-05-16T13:20:22.015Z,3.50
2018-05-16T13:22:49.463Z,4.03
2018-05-16T13:25:16.848Z,4.37
2018-05-16T13:27:44.233Z,3.53
2018-05-16T13:30:11.680Z,4.13
2018-05-16T13:32:39.075Z,7.47
2018-05-16T13:35:06.480Z,4.40
2018-05-16T13:37:33.853Z,3.60
2018-05-16T13:40:01.264Z,6.73
2018-05-16T13:42:28.636Z,3.20
2018-05-16T13:44:56.030Z,3.47
2018-05-16T13:47:24.101Z,3.10
2018-05-16T13:49:51.560Z,4.30
2018-05-16T13:52:18.944Z,4.07
2018-05-16T13:54:46.336Z,3.13
2018-05-16T13:57:13.722Z,3.63
2018-05-16T13:59:41.116Z,6.83
2018-05-16T14:02:08.512Z,4.43
2018-05-16T14:04:35.899Z,3.40
2018-05-16T14:07:03.301Z,4.60
2018-05-16T14:09:30.717Z,3.80
2018-05-16T14:11:58.090Z,3.10
2018-05-16T14:14:25.481Z,4.20
2018-05-16T14:16:52.859Z,3.77
2018-05-16T14:19:20.466Z,8.53
2018-05-16T14:21:47.824Z,3.73
2018-05-16T14:24:15.257Z,4.57
2018-05-16T14:26:42.640Z,4.23
2018-05-16T14:29:10.016Z,6.20
2018-05-16T14:31:37.399Z,5.87
2018-05-16T14:34:04.779Z,3.70
2018-05-16T14:36:32.172Z,4.73
2018-05-16T14:38:59.581Z,5.30
2018-05-16T14:41:26.968Z,5.30
2018-05-16T14:43:54.368Z,3.90
2018-05-16T14:46:21.756Z,4.23
2018-05-16T14:48:49.147Z,4.80
2018-05-16T14:54:12.913Z,4.60
2018-05-16T15:04:49.903Z,6.50
2018-05-16T15:07:35.654Z,4.57
2018-05-16T15:10:22.984Z,6.63
2018-05-16T15:30:43.662Z,4.70
2018-05-16T15:33:12.183Z,4.80
2018-05-16T15:35:39.564Z,4.57
2018-05-16T15:38:06.969Z,5.03
2018-05-16T15:40:35.286Z,4.07
2018-05-16T15:43:02.687Z,5.50
2018-05-16T15:45:30.284Z,4.20
2018-05-16T15:47:58.484Z,3.90
2018-05-16T15:50:27.196Z,3.73
2018-05-16T15:52:54.642Z,5.13
2018-05-16T15:55:22.106Z,3.20
2018-05-16T15:57:49.525Z,3.97
2018-05-16T16:00:16.974Z,4.10
2018-05-16T16:02:44.382Z,3.63
2018-05-16T16:05:11.856Z,3.17
2018-05-16T16:07:39.293Z,3.47
2018-05-16T16:10:06.697Z,3.50
2018-05-16T16:12:34.144Z,3.20
2018-05-16T16:15:01.652Z,6.10
2018-05-16T16:17:48.586Z,3.43
2018-05-16T16:20:20.750Z,5.47
2018-05-16T16:22:53.918Z,2.70
2018-05-16T16:36:11.402Z,4.00
2018-05-16T16:38:40.233Z,2.63
2018-05-16T16:41:25.811Z,3.70
2018-05-16T16:44:04.090Z,3.40
2018-05-16T16:46:38.172Z,2.87
2018-05-16T16:49:13.024Z,2.70
2018-05-16T17:03:07.328Z,3.13
2018-05-16T17:12:31.323Z,3.53
2018-05-16T17:15:05.447Z,3.13
2018-05-16T17:17:33.747Z,3.30
2018-05-16T17:52:49.389Z,6.60
2018-05-16T17:55:17.635Z,4.00
2018-05-16T17:57:46.910Z,3.90
2018-05-16T18:00:15.102Z,5.23
2018-05-16T18:02:42.711Z,3.73
2018-05-16T18:05:14.915Z,3.57
2018-05-16T18:07:43.323Z,3.60
2018-05-16T18:10:11.170Z,5.23
2018-05-16T18:12:38.656Z,4.60
2018-05-16T18:15:18.677Z,4.17
2018-05-16T18:17:46.071Z,3.30
2018-05-16T18:20:14.062Z,5.70
2018-05-16T18:22:45.359Z,3.97
2018-05-16T18:25:15.294Z,4.57
2018-05-16T18:27:44.922Z,4.23
2018-05-16T18:30:13.647Z,3.80
2018-05-16T18:32:41.313Z,5.57
2018-05-16T18:35:11.175Z,4.50
2018-05-16T18:37:40.153Z,4.23
2018-05-16T18:40:07.708Z,5.20
2018-05-16T18:42:37.720Z,4.43
2018-05-16T18:45:06.002Z,5.50
2018-05-16T18:47:33.491Z,4.63
2018-05-16T18:53:03.548Z,4.40
2018-05-16T18:55:33.881Z,5.27
2018-05-16T18:58:04.910Z,5.20
2018-05-16T19:00:32.399Z,5.57
2018-05-16T19:03:03.383Z,5.23
2018-05-16T19:05:32.459Z,5.97
2018-05-16T19:08:01.147Z,4.90
2018-05-16T19:10:29.567Z,4.43
2018-05-16T19:12:58.833Z,4.77
2018-05-16T19:15:27.830Z,3.80
2018-05-16T19:18:03.154Z,5.27
2018-05-16T19:23:10.204Z,5.77
2018-05-16T19:25:37.675Z,5.77
2018-05-16T19:28:08.547Z,5.43
2018-05-16T19:30:37.325Z,4.90
2018-05-16T19:33:07.901Z,8.30
2018-05-16T19:35:46.099Z,6.63
2018-05-16T19:38:13.793Z,4.87
2018-05-16T19:40:42.366Z,4.57
2018-05-16T19:43:12.977Z,5.90
2018-05-16T19:45:42.245Z,6.07
2018-05-16T19:48:09.678Z,5.63
2018-05-16T19:50:37.886Z,5.20
2018-05-16T19:53:06.406Z,6.03
2018-05-16T19:55:33.875Z,5.60
2018-05-16T19:58:02.649Z,6.07
2018-05-16T20:00:32.774Z,6.50
2018-05-16T20:03:02.676Z,5.83
2018-05-16T20:05:30.822Z,5.80
2018-05-16T20:08:00.800Z,5.20
2018-05-16T20:10:28.561Z,5.20
2018-05-16T20:12:56.840Z,5.30
2018-05-16T20:15:25.624Z,7.10
2018-05-16T20:17:53.460Z,7.23
2018-05-16T20:20:22.942Z,5.07
2018-05-16T20:22:52.293Z,6.10
2018-05-16T20:25:20.771Z,4.93
2018-05-16T20:27:51.659Z,5.43
2018-05-16T20:30:20.153Z,4.90
2018-05-16T20:32:50.981Z,5.90
2018-05-16T20:35:19.767Z,5.60
2018-05-16T20:37:48.811Z,5.57
2018-05-16T20:40:16.236Z,5.40
2018-05-16T20:42:45.233Z,6.70
2018-05-16T20:45:12.652Z,5.57
2018-05-16T20:47:40.051Z,5.90
2018-05-16T20:50:09.781Z,5.83
2018-05-16T20:52:40.057Z,5.23
2018-05-16T20:55:07.509Z,7.33
2018-05-16T20:57:36.754Z,5.53
2018-05-16T21:00:04.620Z,8.70
2018-05-16T21:02:32.706Z,5.53
2018-05-16T21:05:00.124Z,6.30
2018-05-16T21:10:05.843Z,5.13
2018-05-16T21:12:34.345Z,5.43
2018-05-16T21:15:03.344Z,5.83
2018-05-16T21:17:33.703Z,8.10
2018-05-16T21:20:01.869Z,6.83
2018-05-16T21:22:33.187Z,6.50
2018-05-16T21:25:04.389Z,6.03
2018-05-16T21:27:34.999Z,5.00
2018-05-16T21:30:02.516Z,6.90
2018-05-16T21:32:31.257Z,5.67
2018-05-16T21:35:01.738Z,7.60
2018-05-16T21:37:29.571Z,6.00
2018-05-16T21:39:58.022Z,6.03
2018-05-16T21:42:26.264Z,5.47
2018-05-16T21:44:53.749Z,6.50
2018-05-16T21:47:22.077Z,6.07
2018-05-16T21:49:51.905Z,7.67
2018-05-16T21:52:20.382Z,6.17
2018-05-16T21:54:47.988Z,5.40
2018-05-16T21:57:16.168Z,5.50
2018-05-16T21:59:43.581Z,6.47
2018-05-16T22:02:13.821Z,6.07
2018-05-16T22:04:44.314Z,6.37
2018-05-16T22:07:12.285Z,7.47
2018-05-16T22:09:43.828Z,6.33
2018-05-16T22:12:12.390Z,6.50
2018-05-16T22:14:41.618Z,5.50
2018-05-16T22:17:09.573Z,7.10
2018-05-16T22:19:39.817Z,6.60
2018-05-16T22:22:09.069Z,9.10
2018-05-16T22:24:37.305Z,7.07
2018-05-16T22:27:10.176Z,6.70
2018-05-16T22:29:37.625Z,6.03
2018-05-16T22:32:10.670Z,6.37
2018-05-16T22:34:46.244Z,6.13
2018-05-16T22:37:20.043Z,6.87
2018-05-16T22:39:56.133Z,7.20
2018-05-16T22:42:29.260Z,8.50
2018-05-16T22:45:03.693Z,8.20
2018-05-16T22:47:32.739Z,8.60
2018-05-16T22:50:00.229Z,9.27
2018-05-16T22:52:30.269Z,9.27
2018-05-16T22:54:58.209Z,9.77
2018-05-16T22:57:26.202Z,9.20
2018-05-16T22:59:54.018Z,10.57
2018-05-16T23:02:36.259Z,9.10
2018-05-16T23:05:06.034Z,9.57
2018-05-16T23:07:40.802Z,9.10
2018-05-16T23:10:09.167Z,10.80
2018-05-16T23:12:37.428Z,10.17
2018-05-16T23:15:04.800Z,10.20
2018-05-16T23:17:32.179Z,9.03
2018-05-16T23:19:59.563Z,9.07
2018-05-16T23:22:26.943Z,9.00
2018-05-16T23:24:54.334Z,9.60
2018-05-16T23:27:21.719Z,8.43
2018-05-16T23:29:49.116Z,9.23
2018-05-16T23:32:16.521Z,8.83
2018-05-16T23:34:43.923Z,12.00
2018-05-16T23:37:11.325Z,10.23
2018-05-16T23:39:38.729Z,10.30
2018-05-16T23:42:06.128Z,9.20
2018-05-16T23:44:33.511Z,10.17
2018-05-16T23:47:00.903Z,12.10
2018-05-16T23:49:28.296Z,9.47
2018-05-16T23:51:55.720Z,9.17
2018-05-16T23:54:23.113Z,9.80
2018-05-16T23:56:50.498Z,10.30
2018-05-16T23:59:17.908Z,11.63
